createdAt,value
2022-10-29T00:00:46.922Z,24.73
2022-10-29T00:03:16.133Z,32.17
2022-10-29T00:05:44.041Z,32.10
2022-10-29T00:08:11.911Z,28.67
2022-10-29T00:10:39.776Z,38.92
2022-10-29T00:13:11.228Z,25.13
2022-10-29T00:15:42.111Z,37.78
2022-10-29T00:18:09.982Z,35.28
2022-10-29T00:20:39.214Z,25.55
2022-10-29T00:23:07.077Z,27.30
2022-10-29T00:25:35.031Z,30.50
2022-10-29T00:28:02.892Z,52.65
2022-10-29T00:30:31.037Z,32.65
2022-10-29T00:32:59.025Z,28.65
2022-10-29T00:35:27.192Z,38.80
2022-10-29T00:37:56.937Z,32.28
2022-10-29T00:40:25.090Z,33.63
2022-10-29T00:42:52.946Z,31.60
2022-10-29T00:45:21.991Z,45.15
2022-10-29T00:47:54.256Z,32.30
2022-10-29T00:50:25.600Z,33.38
2022-10-29T00:52:56.030Z,35.50
2022-10-29T00:55:24.059Z,39.75
2022-10-29T00:57:55.784Z,40.97
2022-10-29T01:00:24.330Z,28.88
2022-10-29T01:02:52.329Z,42.20
2022-10-29T01:05:24.947Z,44.03
2022-10-29T01:07:52.792Z,23.90
2022-10-29T01:10:30.865Z,39.88
2022-10-29T01:15:54.397Z,29.83
2022-10-29T01:18:27.115Z,38.67
2022-10-29T01:21:23.102Z,39.97
2022-10-29T01:24:24.327Z,31.58
2022-10-29T01:27:40.840Z,35.55
2022-10-29T01:30:17.455Z,27.52
2022-10-29T01:32:57.906Z,34.75
2022-10-29T01:35:33.032Z,27.13
2022-10-29T01:38:12.385Z,32.72
2022-10-29T01:40:50.901Z,26.88
2022-10-29T01:43:24.370Z,24.50
2022-10-29T01:45:55.605Z,24.60
2022-10-29T01:48:32.248Z,22.67
2022-10-29T01:51:05.830Z,20.67
2022-10-29T01:53:37.240Z,30.17
2022-10-29T01:56:05.238Z,38.80
2022-10-29T01:58:35.131Z,19.98
2022-10-29T02:01:10.318Z,21.73
2022-10-29T02:03:52.825Z,45.75
2022-10-29T02:06:32.801Z,27.58
2022-10-29T02:09:10.138Z,45.15
2022-10-29T02:11:48.017Z,24.65
2022-10-29T02:14:21.770Z,12.15
2022-10-29T02:16:50.409Z,24.75
2022-10-29T02:19:20.032Z,20.85
2022-10-29T02:21:48.046Z,19.83
2022-10-29T02:24:15.924Z,29.95
2022-10-29T02:26:43.728Z,18.63
2022-10-29T02:29:11.772Z,14.07
2022-10-29T02:31:39.988Z,13.55
2022-10-29T02:34:07.816Z,17.20
2022-10-29T02:36:37.075Z,15.95
2022-10-29T02:39:05.231Z,24.98
2022-10-29T02:41:33.219Z,19.45
2022-10-29T02:44:01.079Z,27.23
2022-10-29T02:46:30.239Z,15.73
2022-10-29T02:48:58.341Z,14.63
2022-10-29T02:51:26.229Z,15.95
2022-10-29T02:53:55.998Z,20.95
2022-10-29T02:56:24.173Z,17.10
2022-10-29T02:58:52.011Z,10.57
2022-10-29T03:01:20.013Z,20.42
2022-10-29T03:03:48.080Z,11.00
2022-10-29T03:06:16.873Z,9.60
2022-10-29T03:08:45.071Z,8.40
2022-10-29T03:11:14.771Z,13.98
2022-10-29T03:13:42.721Z,10.82
2022-10-29T03:16:11.028Z,17.73
2022-10-29T03:18:38.994Z,6.93
2022-10-29T03:21:06.939Z,18.33
2022-10-29T03:23:34.778Z,5.47
2022-10-29T03:26:03.208Z,15.52
2022-10-29T03:28:33.258Z,7.35
2022-10-29T03:31:01.172Z,13.65
2022-10-29T03:33:29.118Z,20.77
2022-10-29T03:35:58.669Z,16.02
2022-10-29T03:38:26.839Z,16.13
2022-10-29T03:40:55.406Z,6.07
2022-10-29T03:43:23.316Z,32.10
2022-10-29T03:45:53.237Z,22.33
2022-10-29T03:48:21.339Z,18.70
2022-10-29T03:50:55.421Z,16.33
2022-10-29T03:53:23.623Z,17.95
2022-10-29T03:55:52.430Z,11.75
2022-10-29T03:58:21.059Z,7.88
2022-10-29T04:00:56.542Z,24.38
2022-10-29T04:03:24.947Z,6.18
2022-10-29T04:05:52.837Z,7.95
2022-10-29T04:08:20.749Z,5.22
2022-10-29T04:10:50.116Z,26.48
2022-10-29T04:13:18.948Z,14.60
2022-10-29T04:15:47.435Z,18.25
2022-10-29T04:18:16.620Z,19.83
2022-10-29T04:22:26.953Z,14.88
2022-10-29T04:29:08.609Z,18.15
2022-10-29T04:31:37.729Z,30.13
2022-10-29T04:34:07.034Z,16.05
2022-10-29T04:36:34.904Z,12.32
2022-10-29T04:39:02.923Z,13.13
2022-10-29T04:41:30.872Z,9.63
2022-10-29T04:43:58.878Z,36.28
2022-10-29T04:46:26.747Z,8.98
2022-10-29T04:48:54.680Z,15.00
2022-10-29T04:51:25.373Z,11.05
2022-10-29T04:53:53.207Z,19.13
2022-10-29T04:56:21.115Z,17.23
2022-10-29T04:58:52.506Z,16.50
2022-10-29T05:01:20.813Z,23.25
2022-10-29T05:03:48.846Z,23.48
2022-10-29T05:06:16.749Z,17.90
2022-10-29T05:08:45.955Z,16.30
2022-10-29T05:11:13.830Z,16.02
2022-10-29T05:13:41.984Z,9.93
2022-10-29T05:16:09.862Z,12.73
2022-10-29T05:18:38.579Z,33.42
2022-10-29T05:21:06.862Z,9.18
2022-10-29T05:23:34.754Z,19.23
2022-10-29T05:26:04.127Z,20.85
2022-10-29T05:28:32.007Z,18.27
2022-10-29T05:31:02.582Z,17.42
2022-10-29T05:33:30.589Z,16.17
2022-10-29T05:36:00.712Z,21.23
2022-10-29T05:38:28.690Z,10.52
2022-10-29T05:40:58.938Z,13.88
2022-10-29T05:43:28.808Z,8.77
2022-10-29T05:45:56.687Z,8.60
2022-10-29T05:48:24.579Z,13.50
2022-10-29T05:50:52.421Z,9.20
2022-10-29T05:53:20.237Z,10.02
2022-10-29T05:55:48.211Z,12.88
2022-10-29T05:58:16.093Z,27.92
2022-10-29T06:00:46.427Z,12.95
2022-10-29T06:03:16.435Z,11.85
2022-10-29T06:05:45.112Z,10.70
2022-10-29T06:08:12.930Z,22.50
2022-10-29T06:10:40.810Z,11.13
2022-10-29T06:13:12.201Z,16.88
2022-10-29T06:15:40.176Z,17.52
2022-10-29T06:18:10.124Z,11.32
2022-10-29T06:20:39.173Z,12.13
2022-10-29T06:23:07.633Z,14.93
2022-10-29T06:25:35.561Z,28.45
2022-10-29T06:28:05.179Z,24.88
2022-10-29T06:30:35.498Z,10.18
2022-10-29T06:33:04.597Z,17.38
2022-10-29T06:38:07.801Z,13.90
2022-10-29T06:40:40.313Z,15.65
2022-10-29T06:43:10.387Z,9.77
2022-10-29T06:45:38.386Z,19.20
2022-10-29T06:48:07.037Z,17.92
2022-10-29T06:50:36.521Z,23.77
2022-10-29T06:53:06.507Z,13.60
2022-10-29T06:55:35.081Z,11.23
2022-10-29T06:58:04.978Z,10.95
2022-10-29T07:00:34.621Z,12.70
2022-10-29T07:03:03.382Z,15.23
2022-10-29T07:05:32.284Z,12.68
2022-10-29T07:08:02.875Z,20.95
2022-10-29T07:10:32.989Z,10.75
2022-10-29T07:13:01.497Z,13.07
2022-10-29T07:15:30.898Z,13.80
2022-10-29T07:18:00.232Z,13.77
2022-10-29T07:20:29.150Z,15.27
2022-10-29T07:22:58.277Z,23.05
2022-10-29T07:25:27.948Z,14.07
2022-10-29T07:27:56.399Z,18.85
2022-10-29T07:30:24.604Z,25.27
2022-10-29T07:32:52.738Z,20.00
2022-10-29T07:35:20.671Z,27.15
2022-10-29T07:37:48.530Z,28.00
2022-10-29T07:40:16.722Z,25.67
2022-10-29T07:42:45.996Z,28.83
2022-10-29T07:45:13.985Z,26.08
2022-10-29T07:47:42.907Z,21.73
2022-10-29T07:50:11.599Z,29.83
2022-10-29T07:52:40.685Z,34.50
2022-10-29T07:55:10.058Z,38.85
2022-10-29T07:57:38.379Z,33.45
2022-10-29T08:00:09.214Z,35.60
2022-10-29T08:02:40.080Z,34.58
2022-10-29T08:05:08.891Z,35.90
2022-10-29T08:07:36.815Z,35.67
2022-10-29T08:10:05.072Z,43.42
2022-10-29T08:12:33.075Z,37.25
2022-10-29T08:15:00.899Z,40.30
2022-10-29T08:17:31.642Z,47.45
2022-10-29T08:19:59.715Z,41.90
2022-10-29T08:22:27.639Z,41.70
2022-10-29T08:24:55.582Z,41.20
2022-10-29T08:27:23.476Z,38.30
2022-10-29T08:29:51.345Z,43.95
2022-10-29T08:32:19.235Z,41.28
2022-10-29T08:34:48.477Z,43.78
2022-10-29T08:37:16.648Z,47.85
2022-10-29T08:39:44.713Z,49.75
2022-10-29T08:42:31.774Z,58.42
2022-10-29T08:45:19.770Z,61.22
2022-10-29T08:48:04.475Z,54.72
2022-10-29T08:50:41.097Z,56.10
2022-10-29T08:53:23.319Z,60.03
2022-10-29T08:55:52.776Z,48.92
2022-10-29T08:58:29.364Z,64.95
2022-10-29T09:00:59.165Z,57.15
2022-10-29T09:03:29.603Z,69.10
2022-10-29T09:06:09.303Z,48.47
2022-10-29T09:08:47.294Z,55.35
2022-10-29T09:11:32.460Z,58.03
2022-10-29T09:14:12.284Z,61.38
2022-10-29T09:16:50.108Z,44.05
2022-10-29T09:19:38.346Z,55.53
2022-10-29T09:22:17.268Z,56.33
2022-10-29T09:24:55.988Z,52.13
2022-10-29T09:27:31.131Z,49.92
2022-10-29T09:30:07.638Z,44.60
2022-10-29T09:33:01.786Z,54.95
2022-10-29T09:38:13.929Z,47.90
2022-10-29T09:40:43.911Z,50.78
2022-10-29T09:43:25.327Z,51.10
2022-10-29T09:46:01.871Z,52.10
2022-10-29T09:48:37.109Z,67.13
2022-10-29T09:51:16.777Z,71.10
2022-10-29T09:53:46.184Z,49.45
2022-10-29T09:56:14.187Z,45.08
2022-10-29T09:58:46.185Z,50.65
2022-10-29T10:01:15.085Z,44.70
2022-10-29T10:08:08.823Z,47.70
2022-10-29T10:10:51.964Z,39.45
2022-10-29T10:13:26.094Z,48.08
2022-10-29T10:15:57.457Z,49.22
2022-10-29T10:18:27.432Z,48.38
2022-10-29T10:21:07.815Z,52.42
2022-10-29T10:23:47.710Z,54.53
2022-10-29T10:26:31.794Z,39.05
2022-10-29T10:29:10.885Z,39.35
2022-10-29T10:31:39.089Z,41.85
2022-10-29T10:34:16.150Z,46.83
2022-10-29T10:36:47.500Z,46.08
2022-10-29T10:39:26.222Z,36.58
2022-10-29T10:41:57.321Z,36.90
2022-10-29T10:44:25.679Z,39.63
2022-10-29T10:46:56.148Z,42.20
2022-10-29T10:49:32.990Z,38.63
2022-10-29T10:52:04.650Z,37.30
2022-10-29T10:54:37.592Z,34.42
2022-10-29T10:57:21.628Z,38.25
2022-10-29T10:59:57.933Z,36.38
2022-10-29T11:02:35.255Z,33.85
2022-10-29T11:05:18.953Z,38.33
2022-10-29T11:07:53.995Z,40.47
2022-10-29T11:10:28.615Z,33.00
2022-10-29T11:13:01.646Z,41.80
2022-10-29T11:15:37.324Z,34.47
2022-10-29T11:18:14.499Z,24.60
2022-10-29T11:20:48.635Z,30.05
2022-10-29T11:23:28.735Z,24.42
2022-10-29T11:26:04.529Z,32.30
2022-10-29T11:28:39.903Z,31.33
2022-10-29T11:31:17.477Z,27.25
2022-10-29T11:33:53.985Z,24.92
2022-10-29T11:36:24.397Z,22.08
2022-10-29T11:39:00.278Z,23.10
2022-10-29T11:41:38.817Z,27.17
2022-10-29T11:44:12.987Z,26.42
2022-10-29T11:46:58.030Z,21.30
2022-10-29T11:49:40.727Z,22.33
2022-10-29T11:52:12.478Z,28.15
2022-10-29T11:54:49.939Z,23.17
2022-10-29T11:57:24.089Z,31.55
2022-10-29T12:00:05.928Z,28.10
2022-10-29T12:03:15.835Z,27.00
2022-10-29T12:05:49.892Z,24.38
2022-10-29T12:08:32.566Z,25.73
2022-10-29T12:11:08.148Z,29.33
2022-10-29T12:13:48.763Z,36.00
2022-10-29T12:16:30.875Z,21.83
2022-10-29T12:19:07.402Z,28.20
2022-10-29T12:21:47.697Z,21.83
2022-10-29T12:24:30.222Z,26.77
2022-10-29T12:27:05.863Z,23.92
2022-10-29T12:29:44.260Z,21.48
2022-10-29T12:32:21.608Z,26.55
2022-10-29T12:34:56.222Z,28.40
2022-10-29T12:37:35.991Z,22.35
2022-10-29T12:40:15.121Z,23.13
2022-10-29T12:42:43.603Z,31.50
2022-10-29T12:45:28.639Z,25.00
2022-10-29T12:48:04.553Z,21.52
2022-10-29T12:50:45.281Z,26.92
2022-10-29T12:53:26.934Z,37.63
2022-10-29T12:55:56.106Z,29.92
2022-10-29T12:58:48.789Z,29.95
2022-10-29T13:04:35.364Z,24.50
2022-10-29T13:07:05.618Z,32.33
2022-10-29T13:09:35.850Z,25.50
2022-10-29T13:12:06.530Z,23.98
2022-10-29T13:14:39.400Z,28.58
2022-10-29T13:17:24.216Z,20.05
2022-10-29T13:19:57.409Z,27.48
2022-10-29T13:22:50.591Z,26.85
2022-10-29T13:25:52.426Z,26.10
2022-10-29T13:28:49.861Z,26.67
2022-10-29T13:31:47.541Z,27.58
2022-10-29T13:34:48.818Z,34.55
2022-10-29T13:38:02.849Z,42.88
2022-10-29T13:41:10.429Z,34.25
2022-10-29T13:43:39.766Z,37.55
2022-10-29T13:46:47.383Z,35.08
2022-10-29T13:49:22.906Z,54.25
2022-10-29T13:51:58.547Z,34.58
2022-10-29T13:54:39.611Z,48.38
2022-10-29T13:57:18.958Z,29.05
2022-10-29T13:59:51.847Z,36.88
2022-10-29T14:02:27.298Z,51.03
2022-10-29T14:05:00.490Z,41.30
2022-10-29T14:07:36.536Z,26.90
2022-10-29T14:10:14.687Z,33.97
2022-10-29T14:12:43.672Z,31.92
2022-10-29T14:15:14.864Z,38.28
2022-10-29T14:17:43.324Z,26.65
2022-10-29T14:20:24.531Z,40.58
2022-10-29T14:22:53.603Z,43.28
2022-10-29T14:25:34.519Z,38.80
2022-10-29T14:28:27.252Z,32.20
2022-10-29T14:31:04.373Z,29.20
2022-10-29T14:33:34.806Z,30.90
2022-10-29T14:36:13.097Z,30.35
2022-10-29T14:38:44.244Z,41.55
2022-10-29T14:41:15.700Z,27.35
2022-10-29T14:43:45.028Z,36.95
2022-10-29T14:46:21.893Z,40.72
2022-10-29T14:48:58.479Z,40.28
2022-10-29T14:51:27.978Z,37.72
2022-10-29T14:54:00.922Z,33.55
2022-10-29T14:56:35.294Z,61.05
2022-10-29T14:59:10.457Z,45.55
2022-10-29T15:01:47.812Z,32.20
2022-10-29T15:04:26.078Z,32.42
2022-10-29T15:06:56.766Z,28.85
2022-10-29T15:09:28.460Z,23.33
2022-10-29T15:12:03.495Z,26.48
2022-10-29T15:14:38.029Z,29.70
2022-10-29T15:17:12.145Z,20.98
2022-10-29T15:19:45.747Z,32.33
2022-10-29T15:22:20.607Z,28.58
2022-10-29T15:24:52.088Z,33.90
2022-10-29T15:27:24.349Z,31.38
2022-10-29T15:29:54.666Z,30.55
2022-10-29T15:32:25.126Z,29.63
2022-10-29T15:34:57.723Z,29.98
2022-10-29T15:37:40.744Z,29.10
2022-10-29T15:40:13.501Z,28.23
2022-10-29T15:42:43.150Z,28.25
2022-10-29T15:45:31.939Z,29.58
2022-10-29T15:48:30.684Z,27.00
2022-10-29T15:50:58.656Z,31.08
2022-10-29T15:53:26.582Z,36.95
2022-10-29T15:55:54.938Z,43.38
2022-10-29T15:58:24.753Z,31.08
2022-10-29T16:00:52.788Z,23.75
2022-10-29T16:03:22.800Z,29.95
2022-10-29T16:05:54.719Z,29.95
2022-10-29T16:08:27.702Z,21.08
2022-10-29T16:10:56.427Z,23.42
2022-10-29T16:13:27.952Z,32.88
2022-10-29T16:15:56.244Z,31.67
2022-10-29T16:18:25.515Z,32.83
2022-10-29T16:20:57.883Z,33.35
2022-10-29T16:23:26.085Z,22.58
2022-10-29T16:25:54.152Z,31.92
2022-10-29T16:28:22.083Z,32.03
2022-10-29T16:30:55.109Z,32.30
2022-10-29T16:33:23.116Z,35.30
2022-10-29T16:35:51.040Z,35.05
2022-10-29T16:38:21.152Z,34.47
2022-10-29T16:40:49.104Z,37.45
2022-10-29T16:43:16.939Z,31.42
2022-10-29T16:45:45.033Z,40.83
2022-10-29T16:48:14.484Z,27.30
2022-10-29T16:50:42.515Z,29.85
2022-10-29T16:53:11.307Z,36.13
2022-10-29T16:55:40.513Z,35.80
2022-10-29T16:58:10.567Z,27.52
2022-10-29T17:00:38.700Z,31.80
2022-10-29T17:03:11.481Z,30.90
2022-10-29T17:08:10.132Z,33.83
2022-10-29T17:10:38.355Z,36.45
2022-10-29T17:13:09.024Z,32.30
2022-10-29T17:15:40.195Z,35.20
2022-10-29T17:18:08.094Z,34.25
2022-10-29T17:20:36.025Z,39.45
2022-10-29T17:23:05.396Z,32.42
2022-10-29T17:25:33.356Z,30.13
2022-10-29T17:28:01.218Z,39.10
2022-10-29T17:30:29.102Z,43.95
2022-10-29T17:32:57.132Z,33.58
2022-10-29T17:35:25.823Z,39.03
2022-10-29T17:37:54.668Z,35.47
2022-10-29T17:40:24.330Z,40.47
2022-10-29T17:42:52.221Z,39.83
2022-10-29T17:45:23.272Z,37.38
2022-10-29T17:47:56.380Z,33.25
2022-10-29T17:50:26.288Z,36.83
2022-10-29T17:52:54.482Z,36.65
2022-10-29T17:55:23.959Z,31.83
2022-10-29T17:57:51.883Z,41.67
2022-10-29T18:00:20.187Z,31.50
2022-10-29T18:02:50.771Z,40.60
2022-10-29T18:05:19.480Z,37.40
2022-10-29T18:07:47.524Z,30.05
2022-10-29T18:10:16.764Z,39.20
2022-10-29T18:12:45.959Z,49.50
2022-10-29T18:15:13.905Z,33.67
2022-10-29T18:17:41.898Z,36.58
2022-10-29T18:20:10.980Z,34.10
2022-10-29T18:22:38.974Z,36.55
2022-10-29T18:25:07.338Z,36.20
2022-10-29T18:27:35.368Z,50.35
2022-10-29T18:30:05.301Z,38.05
2022-10-29T18:32:33.344Z,44.50
2022-10-29T18:35:01.260Z,32.97
2022-10-29T18:37:29.224Z,38.47
2022-10-29T18:39:59.002Z,36.97
2022-10-29T18:42:29.906Z,49.17
2022-10-29T18:44:57.919Z,36.25
2022-10-29T18:47:27.460Z,35.13
2022-10-29T18:49:56.200Z,32.75
2022-10-29T18:52:24.062Z,36.88
2022-10-29T18:54:52.043Z,46.17
2022-10-29T18:57:19.984Z,38.38
2022-10-29T18:59:49.173Z,34.05
2022-10-29T19:02:17.258Z,32.80
2022-10-29T19:04:46.946Z,48.88
2022-10-29T19:07:14.840Z,37.40
2022-10-29T19:09:42.766Z,36.28
2022-10-29T19:12:12.836Z,37.63
2022-10-29T19:14:40.756Z,39.85
2022-10-29T19:17:08.726Z,30.52
2022-10-29T19:19:36.782Z,37.30
2022-10-29T19:22:06.071Z,29.25
2022-10-29T19:24:34.057Z,31.95
2022-10-29T19:27:01.985Z,29.20
2022-10-29T19:29:30.030Z,27.10
2022-10-29T19:31:58.152Z,30.98
2022-10-29T19:34:26.170Z,33.85
2022-10-29T19:36:54.088Z,28.27
2022-10-29T19:39:23.396Z,29.75
2022-10-29T19:41:51.382Z,27.65
2022-10-29T19:44:19.331Z,33.15
2022-10-29T19:46:47.466Z,30.52
2022-10-29T19:49:15.478Z,24.00
2022-10-29T19:51:44.891Z,33.38
2022-10-29T19:54:13.077Z,27.85
2022-10-29T19:56:42.612Z,29.75
2022-10-29T19:59:10.918Z,29.95
2022-10-29T20:01:41.653Z,26.35
2022-10-29T20:04:09.835Z,30.45
2022-10-29T20:06:37.687Z,32.88
2022-10-29T20:09:05.789Z,31.50
2022-10-29T20:11:33.978Z,29.23
2022-10-29T20:14:03.369Z,29.50
2022-10-29T20:16:31.346Z,35.00
2022-10-29T20:18:59.428Z,32.60
2022-10-29T20:21:27.458Z,33.30
2022-10-29T20:23:55.894Z,32.47
2022-10-29T20:26:23.921Z,28.20
2022-10-29T20:28:51.779Z,32.22
2022-10-29T20:31:32.292Z,36.92
2022-10-29T20:34:02.916Z,37.53
2022-10-29T20:36:33.033Z,33.28
2022-10-29T20:39:01.154Z,29.08
2022-10-29T20:41:29.955Z,26.80
2022-10-29T20:43:59.090Z,33.78
2022-10-29T20:46:28.336Z,33.38
2022-10-29T20:48:57.768Z,36.20
2022-10-29T20:51:26.032Z,32.08
2022-10-29T20:53:54.289Z,25.10
2022-10-29T20:56:23.688Z,32.17
2022-10-29T20:58:51.775Z,29.10
2022-10-29T21:01:21.804Z,26.70
2022-10-29T21:03:50.955Z,29.13
2022-10-29T21:06:20.543Z,32.08
2022-10-29T21:08:49.504Z,37.30
2022-10-29T21:11:18.446Z,37.50
2022-10-29T21:13:46.707Z,35.03
2022-10-29T21:16:17.375Z,29.33
2022-10-29T21:18:46.684Z,29.52
2022-10-29T21:21:15.128Z,32.17
2022-10-29T21:23:44.685Z,24.52
2022-10-29T21:26:15.814Z,30.73
2022-10-29T21:28:44.285Z,33.05
2022-10-29T21:31:12.527Z,29.17
2022-10-29T21:33:40.419Z,31.48
2022-10-29T21:36:08.973Z,32.63
2022-10-29T21:38:36.838Z,30.45
2022-10-29T21:41:06.303Z,34.38
2022-10-29T21:43:34.947Z,35.65
2022-10-29T21:46:03.011Z,27.55
2022-10-29T21:48:31.088Z,34.03
2022-10-29T21:51:04.390Z,28.35
2022-10-29T21:53:32.714Z,31.05
2022-10-29T21:56:02.660Z,29.60
2022-10-29T21:58:32.422Z,27.98
2022-10-29T22:01:05.308Z,27.90
2022-10-29T22:03:33.975Z,29.70
2022-10-29T22:06:03.172Z,37.45
2022-10-29T22:08:31.046Z,24.10
2022-10-29T22:10:59.335Z,27.83
2022-10-29T22:13:28.174Z,23.65
2022-10-29T22:15:57.815Z,33.65
2022-10-29T22:18:26.754Z,33.03
2022-10-29T22:21:04.464Z,29.20
2022-10-29T22:23:32.314Z,27.30
2022-10-29T22:26:00.255Z,28.95
2022-10-29T22:28:28.390Z,24.95
2022-10-29T22:31:02.469Z,30.15
2022-10-29T22:33:31.536Z,23.52
2022-10-29T22:36:05.419Z,27.42
2022-10-29T22:38:33.393Z,25.77
2022-10-29T22:41:05.576Z,25.10
2022-10-29T22:43:33.451Z,32.38
2022-10-29T22:46:03.190Z,32.00
2022-10-29T22:48:31.168Z,22.42
2022-10-29T22:51:03.855Z,35.67
2022-10-29T22:53:32.135Z,30.08
2022-10-29T22:56:00.563Z,30.90
2022-10-29T22:58:28.540Z,28.33
2022-10-29T23:01:05.661Z,22.85
2022-10-29T23:03:33.881Z,34.67
2022-10-29T23:06:03.486Z,26.13
2022-10-29T23:08:32.236Z,23.42
2022-10-29T23:11:00.385Z,27.98
2022-10-29T23:13:28.299Z,30.40
2022-10-29T23:15:56.206Z,30.38
2022-10-29T23:18:25.565Z,29.45
2022-10-29T23:20:59.265Z,31.05
2022-10-29T23:23:27.393Z,28.50
2022-10-29T23:26:00.445Z,20.92
2022-10-29T23:28:28.939Z,26.65
2022-10-29T23:30:57.529Z,34.88
2022-10-29T23:33:26.810Z,29.33
2022-10-29T23:35:54.861Z,29.40
2022-10-29T23:38:22.887Z,29.65
2022-10-29T23:40:50.735Z,26.50
2022-10-29T23:43:18.697Z,32.50
2022-10-29T23:45:46.677Z,19.67
2022-10-29T23:48:14.544Z,25.95
2022-10-29T23:50:43.763Z,27.17
2022-10-29T23:53:11.950Z,29.65
2022-10-29T23:55:39.865Z,32.38
2022-10-29T23:58:07.698Z,31.98
